createdAt,value
2019-03-22T00:02:52.635Z,1.30
2019-03-22T00:05:41.535Z,1.30
2019-03-22T00:08:30.658Z,1.30
2019-03-22T00:11:19.456Z,1.20
2019-03-22T00:14:08.423Z,1.20
2019-03-22T00:16:56.731Z,1.10
2019-03-22T00:19:44.798Z,1.00
2019-03-22T00:22:33.331Z,1.10
2019-03-22T00:25:22.270Z,1.00
2019-03-22T00:28:10.564Z,1.00
2019-03-22T00:30:58.988Z,1.00
2019-03-22T00:33:47.013Z,1.00
2019-03-22T00:36:35.068Z,1.00
2019-03-22T00:39:23.651Z,1.00
2019-03-22T00:42:12.264Z,0.90
2019-03-22T00:45:01.163Z,0.90
2019-03-22T00:47:49.781Z,0.90
2019-03-22T00:50:38.145Z,0.90
2019-03-22T00:53:26.679Z,0.90
2019-03-22T00:56:15.127Z,0.90
2019-03-22T00:59:03.592Z,0.90
2019-03-22T01:01:52.180Z,0.80
2019-03-22T01:04:40.217Z,0.80
2019-03-22T01:07:31.149Z,0.80
2019-03-22T01:10:19.699Z,0.80
2019-03-22T01:13:08.355Z,0.80
2019-03-22T01:15:56.560Z,0.70
2019-03-22T01:18:45.061Z,0.70
2019-03-22T01:21:33.600Z,0.70
2019-03-22T01:24:22.337Z,0.60
2019-03-22T01:27:11.303Z,0.60
2019-03-22T01:29:59.761Z,0.60
2019-03-22T01:32:47.918Z,0.50
2019-03-22T01:35:36.782Z,0.50
2019-03-22T01:38:25.747Z,0.40
2019-03-22T01:41:15.731Z,0.40
2019-03-22T01:44:04.581Z,0.40
2019-03-22T01:46:52.850Z,0.40
2019-03-22T01:49:41.336Z,0.40
2019-03-22T01:52:30.137Z,0.30
2019-03-22T01:55:21.658Z,0.30
2019-03-22T01:58:10.359Z,0.30
2019-03-22T02:00:58.782Z,0.20
2019-03-22T02:03:47.408Z,0.20
2019-03-22T02:06:36.282Z,0.20
2019-03-22T02:09:25.526Z,0.20
2019-03-22T02:12:13.961Z,0.10
2019-03-22T02:15:02.524Z,0.20
2019-03-22T02:17:51.770Z,0.10
2019-03-22T02:20:40.060Z,0.10
2019-03-22T02:23:35.457Z,0.10
2019-03-22T02:26:27.888Z,0.20
2019-03-22T02:29:20.807Z,0.20
2019-03-22T02:32:09.219Z,0.30
2019-03-22T02:35:08.021Z,0.30
2019-03-22T02:37:56.633Z,0.30
2019-03-22T02:40:45.317Z,0.40
2019-03-22T02:43:33.686Z,0.40
2019-03-22T02:46:22.405Z,0.40
2019-03-22T02:49:10.617Z,0.30
2019-03-22T02:51:58.749Z,0.30
2019-03-22T02:54:47.119Z,0.20
2019-03-22T02:57:37.464Z,0.20
2019-03-22T03:00:26.336Z,0.10
2019-03-22T03:03:14.987Z,0.10
2019-03-22T03:06:03.336Z,0.10
2019-03-22T03:08:52.070Z,0.00
2019-03-22T03:11:40.539Z,0.00
2019-03-22T03:14:29.247Z,-0.10
2019-03-22T03:17:17.805Z,-0.10
2019-03-22T03:20:07.415Z,-0.10
2019-03-22T03:22:55.572Z,-0.20
2019-03-22T03:25:43.923Z,-0.20
2019-03-22T03:28:37.100Z,-0.30
2019-03-22T03:31:22.714Z,-0.30
2019-03-22T03:34:11.543Z,-0.30
2019-03-22T03:37:00.397Z,-0.40
2019-03-22T03:39:48.641Z,-0.40
2019-03-22T03:42:37.532Z,-0.40
2019-03-22T03:45:34.703Z,-0.40
2019-03-22T03:48:23.596Z,-0.50
2019-03-22T03:51:12.422Z,-0.40
2019-03-22T03:54:01.253Z,-0.40
2019-03-22T03:56:50.069Z,-0.50
2019-03-22T03:59:39.540Z,-0.50
2019-03-22T04:02:28.486Z,-0.50
2019-03-22T04:05:17.656Z,-0.50
2019-03-22T04:08:06.558Z,-0.50
2019-03-22T04:10:55.119Z,-0.60
2019-03-22T04:13:44.304Z,-0.60
2019-03-22T04:16:32.938Z,-0.60
2019-03-22T04:19:21.643Z,-0.60
2019-03-22T04:22:11.447Z,-0.60
2019-03-22T04:24:59.700Z,-0.70
2019-03-22T04:27:47.886Z,-0.70
2019-03-22T04:30:36.325Z,-0.70
2019-03-22T04:33:24.611Z,-0.70
2019-03-22T04:36:12.828Z,-0.80
2019-03-22T04:39:01.719Z,-0.80
2019-03-22T04:41:50.068Z,-0.90
2019-03-22T04:44:39.034Z,-0.90
2019-03-22T04:47:28.121Z,-0.90
2019-03-22T04:50:20.716Z,-0.90
2019-03-22T04:53:11.881Z,-0.90
2019-03-22T04:56:04.337Z,-0.90
2019-03-22T04:58:53.757Z,-0.90
2019-03-22T05:01:45.321Z,-0.90
2019-03-22T05:04:35.544Z,-1.00
2019-03-22T05:07:24.163Z,-1.00
2019-03-22T05:10:14.977Z,-1.00
2019-03-22T05:13:03.915Z,-1.00
2019-03-22T05:15:53.043Z,-1.10
2019-03-22T05:18:44.845Z,-1.10
2019-03-22T05:21:34.965Z,-1.00
2019-03-22T05:24:25.371Z,-1.10
2019-03-22T05:27:14.341Z,-1.10
2019-03-22T05:30:03.794Z,-1.10
2019-03-22T05:32:52.308Z,-1.20
2019-03-22T05:35:40.615Z,-1.20
2019-03-22T05:38:28.790Z,-1.20
2019-03-22T05:41:16.737Z,-1.20
2019-03-22T05:44:05.289Z,-1.20
2019-03-22T05:46:53.566Z,-1.20
2019-03-22T05:49:42.110Z,-1.20
2019-03-22T05:52:30.662Z,-1.20
2019-03-22T05:55:18.969Z,-1.20
2019-03-22T05:58:07.675Z,-1.20
2019-03-22T06:00:56.143Z,-1.10
2019-03-22T06:03:44.430Z,-1.10
2019-03-22T06:06:32.554Z,-1.00
2019-03-22T06:09:21.032Z,-1.00
2019-03-22T06:12:09.591Z,-0.90
2019-03-22T06:14:58.184Z,-0.90
2019-03-22T06:17:51.576Z,-0.80
2019-03-22T06:20:36.320Z,-0.80
2019-03-22T06:23:24.971Z,-0.70
2019-03-22T06:26:13.637Z,-0.60
2019-03-22T06:29:02.147Z,-0.40
2019-03-22T06:31:50.020Z,-0.30
2019-03-22T06:34:38.426Z,-0.30
2019-03-22T06:37:26.752Z,-0.20
2019-03-22T06:40:15.114Z,-0.10
2019-03-22T06:43:03.813Z,0.10
2019-03-22T06:45:52.032Z,0.20
2019-03-22T06:48:40.205Z,0.40
2019-03-22T06:51:28.530Z,0.60
2019-03-22T06:54:17.466Z,0.70
2019-03-22T06:57:05.976Z,0.90
2019-03-22T07:00:05.515Z,1.00
2019-03-22T07:02:44.211Z,1.20
2019-03-22T07:05:32.869Z,1.30
2019-03-22T07:08:21.901Z,1.50
2019-03-22T07:11:10.913Z,1.70
2019-03-22T07:13:59.704Z,1.90
2019-03-22T07:16:48.206Z,2.10
2019-03-22T07:19:37.056Z,2.20
2019-03-22T07:22:25.732Z,2.40
2019-03-22T07:25:14.192Z,2.60
2019-03-22T07:28:02.453Z,2.80
2019-03-22T07:30:51.183Z,3.00
2019-03-22T07:33:39.676Z,3.20
2019-03-22T07:36:28.251Z,3.30
2019-03-22T07:39:16.552Z,3.50
2019-03-22T07:42:05.121Z,3.70
2019-03-22T07:44:53.742Z,3.80
2019-03-22T07:47:42.290Z,3.90
2019-03-22T07:50:30.664Z,3.90
2019-03-22T07:53:19.303Z,4.00
2019-03-22T07:56:07.913Z,4.20
2019-03-22T07:58:56.369Z,4.30
2019-03-22T08:01:44.865Z,4.40
2019-03-22T08:04:33.322Z,4.60
2019-03-22T08:07:21.602Z,4.70
2019-03-22T08:10:10.642Z,4.90
2019-03-22T08:12:59.001Z,5.20
2019-03-22T08:15:47.541Z,5.30
2019-03-22T08:18:36.257Z,5.50
2019-03-22T08:21:24.477Z,5.70
2019-03-22T08:24:13.352Z,5.90
2019-03-22T08:27:01.610Z,6.10
2019-03-22T08:29:50.104Z,6.00
2019-03-22T08:32:38.450Z,6.50
2019-03-22T08:38:14.323Z,7.00
2019-03-22T08:41:03.081Z,7.10
2019-03-22T08:43:51.135Z,7.20
2019-03-22T08:46:39.552Z,7.50
2019-03-22T08:49:27.883Z,7.50
2019-03-22T08:52:16.907Z,7.70
2019-03-22T08:55:05.842Z,7.90
2019-03-22T08:57:54.037Z,8.10
2019-03-22T09:00:56.145Z,8.30
2019-03-22T09:03:32.018Z,8.50
2019-03-22T09:06:20.822Z,8.60
2019-03-22T09:09:09.394Z,8.70
2019-03-22T09:11:57.722Z,8.80
2019-03-22T09:14:45.884Z,9.00
2019-03-22T09:17:34.129Z,9.10
2019-03-22T09:20:22.312Z,9.30
2019-03-22T09:23:11.091Z,9.30
2019-03-22T09:25:59.834Z,9.40
2019-03-22T09:28:48.141Z,9.60
2019-03-22T09:31:36.209Z,9.70
2019-03-22T09:34:33.461Z,9.80
2019-03-22T09:40:02.644Z,10.10
2019-03-22T09:42:53.027Z,10.30
2019-03-22T09:45:41.493Z,10.50
2019-03-22T09:48:30.451Z,10.70
2019-03-22T09:51:19.234Z,10.80
2019-03-22T09:54:07.460Z,10.90
2019-03-22T09:56:55.981Z,11.00
2019-03-22T09:59:44.499Z,10.90
2019-03-22T10:02:33.017Z,11.00
2019-03-22T10:05:21.694Z,11.30
2019-03-22T10:08:13.273Z,11.50
2019-03-22T10:11:01.567Z,11.60
2019-03-22T10:13:50.447Z,11.80
2019-03-22T10:19:26.544Z,12.00
2019-03-22T10:22:15.264Z,12.10
2019-03-22T10:25:03.822Z,12.20
2019-03-22T10:27:52.478Z,12.30
2019-03-22T10:30:41.031Z,12.40
2019-03-22T10:33:29.546Z,12.50
2019-03-22T10:36:17.850Z,12.70
2019-03-22T10:39:08.826Z,12.80
2019-03-22T10:41:57.394Z,12.90
2019-03-22T10:44:46.172Z,13.00
2019-03-22T10:47:34.736Z,13.00
2019-03-22T10:50:23.107Z,13.00
2019-03-22T10:53:11.920Z,13.20
2019-03-22T10:56:00.624Z,13.30
2019-03-22T10:58:49.090Z,13.40
2019-03-22T11:01:48.673Z,13.60
2019-03-22T11:04:27.298Z,13.70
2019-03-22T11:07:15.970Z,13.70
2019-03-22T11:10:05.956Z,13.70
2019-03-22T11:12:54.070Z,13.90
2019-03-22T11:15:48.472Z,14.00
2019-03-22T11:18:37.387Z,14.00
2019-03-22T11:21:22.306Z,14.10
2019-03-22T11:24:10.574Z,14.10
2019-03-22T11:26:59.028Z,14.20
2019-03-22T11:29:48.199Z,14.30
2019-03-22T11:32:36.819Z,14.30
2019-03-22T11:35:25.177Z,14.40
2019-03-22T11:38:13.741Z,14.50
2019-03-22T11:41:02.986Z,14.50
2019-03-22T11:43:51.859Z,14.40
2019-03-22T11:46:40.488Z,14.40
2019-03-22T11:49:29.141Z,14.60
2019-03-22T11:52:17.310Z,14.80
2019-03-22T11:55:07.249Z,14.90
2019-03-22T11:57:55.313Z,15.00
2019-03-22T12:00:43.694Z,15.10
2019-03-22T12:03:32.196Z,15.20
2019-03-22T12:06:20.819Z,15.30
2019-03-22T12:09:10.618Z,15.40
2019-03-22T12:11:59.384Z,15.40
2019-03-22T12:14:47.891Z,15.40
2019-03-22T12:17:35.882Z,15.50
2019-03-22T12:20:25.268Z,15.50
2019-03-22T12:23:13.722Z,15.70
2019-03-22T12:26:02.160Z,15.80
2019-03-22T12:28:50.679Z,15.70
2019-03-22T12:31:39.530Z,15.80
2019-03-22T12:34:27.862Z,15.90
2019-03-22T12:37:16.501Z,15.90
2019-03-22T12:40:05.967Z,16.00
2019-03-22T12:42:56.480Z,16.10
2019-03-22T12:45:44.420Z,16.10
2019-03-22T12:48:33.062Z,16.00
2019-03-22T12:51:21.690Z,16.00
2019-03-22T12:54:10.263Z,16.20
2019-03-22T12:56:59.135Z,16.20
2019-03-22T12:59:47.849Z,16.20
2019-03-22T13:02:42.178Z,16.30
2019-03-22T13:05:25.812Z,16.30
2019-03-22T13:08:14.560Z,16.40
2019-03-22T13:11:02.790Z,16.50
2019-03-22T13:13:51.637Z,16.50
2019-03-22T13:16:39.591Z,16.50
2019-03-22T13:19:27.517Z,16.60
2019-03-22T13:22:15.866Z,16.60
2019-03-22T13:25:04.628Z,16.40
2019-03-22T13:27:52.521Z,16.40
2019-03-22T13:30:40.765Z,16.40
2019-03-22T13:33:29.002Z,16.40
2019-03-22T13:36:17.142Z,16.40
2019-03-22T13:39:07.625Z,16.30
2019-03-22T13:41:56.188Z,16.30
2019-03-22T13:44:45.017Z,16.40
2019-03-22T13:47:33.226Z,16.40
2019-03-22T13:50:21.668Z,16.40
2019-03-22T13:53:10.823Z,16.50
2019-03-22T13:55:59.143Z,16.60
2019-03-22T13:58:47.237Z,16.50
2019-03-22T14:01:35.590Z,16.40
2019-03-22T14:04:23.983Z,16.40
2019-03-22T14:07:12.347Z,16.40
2019-03-22T14:10:00.530Z,16.40
2019-03-22T14:12:48.965Z,16.50
2019-03-22T14:15:36.803Z,16.50
2019-03-22T14:18:24.989Z,16.60
2019-03-22T14:21:13.172Z,16.80
2019-03-22T14:24:01.418Z,17.00
2019-03-22T14:26:49.861Z,17.20
2019-03-22T14:29:37.867Z,17.10
2019-03-22T14:32:25.818Z,17.00
2019-03-22T14:35:14.026Z,17.10
2019-03-22T14:38:02.648Z,17.20
2019-03-22T14:40:51.106Z,17.20
2019-03-22T14:43:39.308Z,17.20
2019-03-22T14:46:27.846Z,17.20
2019-03-22T14:49:16.610Z,17.20
2019-03-22T14:52:04.995Z,17.20
2019-03-22T14:54:53.011Z,16.90
2019-03-22T14:57:48.729Z,16.90
2019-03-22T15:00:31.374Z,17.00
2019-03-22T15:03:27.143Z,17.10
2019-03-22T15:06:15.181Z,17.10
2019-03-22T15:09:05.180Z,17.00
2019-03-22T15:11:53.500Z,16.90
2019-03-22T15:14:49.183Z,16.90
2019-03-22T15:17:53.454Z,16.80
2019-03-22T15:20:59.691Z,16.80
2019-03-22T15:24:06.838Z,16.80
2019-03-22T15:27:12.899Z,16.80
2019-03-22T15:30:15.266Z,16.90
2019-03-22T15:33:34.530Z,16.80
2019-03-22T15:36:45.033Z,16.80
2019-03-22T15:39:51.343Z,16.80
2019-03-22T15:42:39.252Z,16.80
2019-03-22T15:45:27.690Z,16.70
2019-03-22T15:48:16.020Z,16.60
2019-03-22T15:51:04.065Z,16.60
2019-03-22T15:53:52.156Z,16.60
2019-03-22T15:56:40.768Z,16.70
2019-03-22T15:59:29.259Z,16.70
2019-03-22T16:02:17.199Z,16.70
2019-03-22T16:05:06.197Z,16.70
2019-03-22T16:07:54.217Z,16.70
2019-03-22T16:10:41.952Z,16.70
2019-03-22T16:13:30.115Z,16.70
2019-03-22T16:16:18.352Z,16.70
2019-03-22T16:19:06.796Z,16.70
2019-03-22T16:21:55.036Z,16.60
2019-03-22T16:24:43.143Z,16.60
2019-03-22T16:27:31.510Z,16.50
2019-03-22T16:30:20.095Z,16.50
2019-03-22T16:33:08.669Z,16.50
2019-03-22T16:35:56.973Z,16.40
2019-03-22T16:38:44.820Z,16.40
2019-03-22T16:41:32.940Z,16.30
2019-03-22T16:44:21.519Z,16.30
2019-03-22T16:47:09.693Z,16.20
2019-03-22T16:49:58.082Z,16.10
2019-03-22T16:52:46.206Z,16.00
2019-03-22T16:55:34.572Z,15.90
2019-03-22T16:58:23.177Z,15.80
2019-03-22T17:01:11.606Z,15.80
2019-03-22T17:04:04.415Z,15.70
2019-03-22T17:06:49.642Z,15.50
2019-03-22T17:09:37.661Z,15.30
2019-03-22T17:12:26.145Z,15.10
2019-03-22T17:15:14.790Z,15.10
2019-03-22T17:18:03.995Z,15.00
2019-03-22T17:20:52.493Z,15.00
2019-03-22T17:23:41.042Z,14.80
2019-03-22T17:26:29.116Z,14.70
2019-03-22T17:29:17.251Z,14.70
2019-03-22T17:32:05.460Z,14.50
2019-03-22T17:34:53.386Z,14.40
2019-03-22T17:37:41.706Z,14.30
2019-03-22T17:40:30.141Z,14.20
2019-03-22T17:43:18.610Z,14.10
2019-03-22T17:46:07.178Z,13.90
2019-03-22T17:48:55.706Z,13.80
2019-03-22T17:51:44.479Z,13.70
2019-03-22T17:54:32.520Z,13.50
2019-03-22T17:57:20.700Z,13.40
2019-03-22T18:00:09.197Z,13.20
2019-03-22T18:02:57.907Z,13.00
2019-03-22T18:05:45.780Z,12.80
2019-03-22T18:11:21.529Z,12.20
2019-03-22T18:14:09.706Z,11.90
2019-03-22T18:16:57.741Z,11.50
2019-03-22T18:19:46.148Z,11.30
2019-03-22T18:22:34.240Z,11.20
2019-03-22T18:25:22.543Z,11.10
2019-03-22T18:28:10.397Z,11.10
2019-03-22T18:30:58.219Z,11.00
2019-03-22T18:33:46.992Z,10.90
2019-03-22T18:36:35.604Z,10.90
2019-03-22T18:39:23.986Z,10.80
2019-03-22T18:42:12.265Z,10.60
2019-03-22T18:45:00.309Z,10.50
2019-03-22T18:47:48.837Z,10.50
2019-03-22T18:50:37.585Z,10.40
2019-03-22T18:53:25.933Z,10.30
2019-03-22T18:56:13.894Z,10.20
2019-03-22T18:59:02.112Z,10.10
2019-03-22T19:01:50.421Z,10.00
2019-03-22T19:04:43.976Z,10.00
2019-03-22T19:07:28.217Z,9.90
2019-03-22T19:10:17.197Z,9.70
2019-03-22T19:13:05.484Z,9.60
2019-03-22T19:15:53.516Z,9.50
2019-03-22T19:18:41.827Z,9.40
2019-03-22T19:21:29.928Z,9.40
2019-03-22T19:24:18.125Z,9.40
2019-03-22T19:27:06.808Z,9.30
2019-03-22T19:29:54.909Z,9.30
2019-03-22T19:32:43.098Z,9.20
2019-03-22T19:35:31.486Z,9.10
2019-03-22T19:38:19.572Z,9.00
2019-03-22T19:41:08.234Z,8.90
2019-03-22T19:43:56.480Z,8.70
2019-03-22T19:49:04.347Z,8.70
2019-03-22T19:51:52.186Z,8.40
2019-03-22T19:54:40.328Z,8.40
2019-03-22T19:57:28.476Z,8.20
2019-03-22T20:00:16.822Z,8.10
2019-03-22T20:03:05.369Z,8.00
2019-03-22T20:05:53.733Z,7.90
2019-03-22T20:08:42.142Z,7.80
2019-03-22T20:11:30.547Z,7.70
2019-03-22T20:14:19.221Z,7.60
2019-03-22T20:17:07.372Z,7.50
2019-03-22T20:19:55.432Z,7.40
2019-03-22T20:22:43.649Z,7.30
2019-03-22T20:25:32.238Z,7.30
2019-03-22T20:28:20.470Z,7.20
2019-03-22T20:31:08.433Z,7.10
2019-03-22T20:33:56.326Z,7.00
2019-03-22T20:36:44.489Z,6.90
2019-03-22T20:39:32.327Z,6.80
2019-03-22T20:42:20.849Z,6.70
2019-03-22T20:45:09.044Z,6.50
2019-03-22T20:47:57.291Z,6.40
2019-03-22T20:50:45.413Z,6.40
2019-03-22T20:53:33.790Z,6.20
2019-03-22T20:56:21.721Z,6.30
2019-03-22T20:59:10.245Z,6.20
2019-03-22T21:01:58.162Z,6.20
2019-03-22T21:04:46.221Z,6.10
2019-03-22T21:07:34.490Z,6.00
2019-03-22T21:10:22.978Z,6.00
2019-03-22T21:13:11.813Z,5.90
2019-03-22T21:15:59.901Z,5.90
2019-03-22T21:18:47.965Z,5.80
2019-03-22T21:21:36.826Z,5.70
2019-03-22T21:24:25.344Z,5.70
2019-03-22T21:27:15.884Z,5.60
2019-03-22T21:30:03.231Z,5.60
2019-03-22T21:32:51.584Z,5.50
2019-03-22T21:35:40.544Z,5.50
2019-03-22T21:38:28.793Z,5.30
2019-03-22T21:41:16.691Z,5.30
2019-03-22T21:44:04.989Z,5.30
2019-03-22T21:46:53.259Z,5.20
2019-03-22T21:49:41.627Z,5.10
2019-03-22T21:52:29.792Z,5.10
2019-03-22T21:55:17.689Z,5.00
2019-03-22T21:58:05.720Z,5.00
2019-03-22T22:00:53.946Z,4.90
2019-03-22T22:03:41.989Z,4.80
2019-03-22T22:06:30.132Z,4.70
2019-03-22T22:09:18.009Z,4.70
2019-03-22T22:12:06.305Z,4.70
2019-03-22T22:14:54.538Z,4.70
2019-03-22T22:17:42.793Z,4.60
2019-03-22T22:20:30.795Z,4.50
2019-03-22T22:23:19.044Z,4.50
2019-03-22T22:26:07.515Z,4.40
2019-03-22T22:28:55.545Z,4.30
2019-03-22T22:31:43.596Z,4.20
2019-03-22T22:34:31.752Z,4.20
2019-03-22T22:37:20.131Z,4.20
2019-03-22T22:40:08.274Z,4.10
2019-03-22T22:42:56.862Z,4.10
2019-03-22T22:45:44.938Z,4.00
2019-03-22T22:48:32.878Z,4.00
2019-03-22T22:51:21.337Z,3.90
2019-03-22T22:54:09.586Z,3.90
2019-03-22T22:56:57.522Z,3.90
2019-03-22T22:59:46.076Z,3.80
2019-03-22T23:02:34.639Z,3.80
2019-03-22T23:05:23.237Z,3.70
2019-03-22T23:08:11.401Z,3.70
2019-03-22T23:10:59.860Z,3.60
2019-03-22T23:13:48.230Z,3.50
2019-03-22T23:16:36.452Z,3.50
2019-03-22T23:19:24.212Z,3.40
2019-03-22T23:22:12.605Z,3.40
2019-03-22T23:25:00.470Z,3.40
2019-03-22T23:27:49.011Z,3.40
2019-03-22T23:30:37.836Z,3.30
2019-03-22T23:33:26.305Z,3.20
2019-03-22T23:36:20.081Z,3.20
2019-03-22T23:39:06.308Z,3.20
2019-03-22T23:41:54.700Z,3.20
2019-03-22T23:44:42.733Z,3.10
2019-03-22T23:47:30.782Z,3.10
2019-03-22T23:50:18.592Z,3.10
2019-03-22T23:53:06.954Z,3.10
2019-03-22T23:55:55.074Z,3.00
2019-03-22T23:58:43.305Z,2.90
